Time;durP1;ratioP1;P1;durP2;ratioP2;P2;SDS_P1;SDS_P2;PMS_P1;PMS_P2;Temp;Humidity;BMP_temperature;BMP_pressure;BME280_temperature;BME280_humidity;BME280_pressure;Samples;Min_cycle;Max_cycle;Signal;HPM_P1;HPM_P2
2021/10/27 00:01:17;;;;;;;9.70;9.10;;;;;;;;;;5067061;28;20063;-46
2021/10/27 00:03:44;;;;;;;9.30;9.00;;;;;;;;;;5066598;28;20396;-50
2021/10/27 00:06:10;;;;;;;9.70;9.07;;;;;;;;;;5071388;28;20046;-47
2021/10/27 00:08:37;;;;;;;8.98;8.52;;;;;;;;;;5070861;28;20036;-48
2021/10/27 00:11:04;;;;;;;9.23;8.55;;;;;;;;;;5067265;28;20037;-45
2021/10/27 00:13:31;;;;;;;11.73;11.10;;;;;;;;;;5066588;28;20127;-47
2021/10/27 00:15:59;;;;;;;12.75;11.70;;;;;;;;;;5054750;28;20043;-44
2021/10/27 00:18:26;;;;;;;13.80;12.90;;;;;;;;;;5065260;28;20033;-47
2021/10/27 00:20:53;;;;;;;11.73;11.02;;;;;;;;;;5060802;28;20035;-45
2021/10/27 00:23:19;;;;;;;9.82;9.10;;;;;;;;;;5070363;28;20040;-48
2021/10/27 00:25:46;;;;;;;10.02;9.52;;;;;;;;;;5065152;28;20115;-45
2021/10/27 00:28:13;;;;;;;11.68;10.88;;;;;;;;;;5071673;28;20507;-47
2021/10/27 00:30:39;;;;;;;10.90;10.30;;;;;;;;;;5068781;28;20040;-45
2021/10/27 00:33:06;;;;;;;9.80;9.40;;;;;;;;;;5071023;28;20032;-46
2021/10/27 00:35:34;;;;;;;9.82;9.43;;;;;;;;;;5073276;28;20087;-49
2021/10/27 00:38:01;;;;;;;10.13;9.48;;;;;;;;;;5069515;28;20449;-44
2021/10/27 00:40:28;;;;;;;8.30;7.80;;;;;;;;;;5063911;28;20496;-48
2021/10/27 00:42:54;;;;;;;10.57;10.00;;;;;;;;;;5070725;28;20036;-45
2021/10/27 00:45:23;;;;;;;11.63;11.05;;;;;;;;;;5071021;28;20132;-49
2021/10/27 00:47:50;;;;;;;11.48;10.85;;;;;;;;;;5072236;28;20072;-44
2021/10/27 00:50:17;;;;;;;10.95;10.75;;;;;;;;;;5071321;28;20032;-48
2021/10/27 00:52:45;;;;;;;12.18;11.73;;;;;;;;;;5066278;28;20098;-45
2021/10/27 00:55:13;;;;;;;12.60;12.10;;;;;;;;;;5070292;28;20029;-45
2021/10/27 00:57:40;;;;;;;8.60;8.15;;;;;;;;;;5070265;28;20443;-47
2021/10/27 01:00:07;;;;;;;14.38;13.73;;;;;;;;;;5070437;28;20048;-47
2021/10/27 01:02:34;;;;;;;17.55;16.73;;;;;;;;;;5071312;28;20086;-49
2021/10/27 01:05:01;;;;;;;15.95;15.25;;;;;;;;;;5070302;28;20165;-44
2021/10/27 01:07:28;;;;;;;17.27;16.48;;;;;;;;;;5070939;28;20049;-48
2021/10/27 01:09:55;;;;;;;18.08;17.30;;;;;;;;;;5071418;28;20036;-46
2021/10/27 01:12:22;;;;;;;18.25;17.15;;;;;;;;;;5070105;28;20106;-45
2021/10/27 01:14:49;;;;;;;12.57;11.88;;;;;;;;;;5069557;28;20044;-45
2021/10/27 01:17:16;;;;;;;17.50;16.65;;;;;;;;;;5072654;28;20086;-47
2021/10/27 01:19:49;;;;;;;16.95;16.23;;;;;;;;;;5067989;28;20039;-45
2021/10/27 01:22:17;;;;;;;17.67;17.00;;;;;;;;;;5069542;28;20136;-45
2021/10/27 01:24:46;;;;;;;15.07;14.15;;;;;;;;;;5067458;28;20045;-48
2021/10/27 01:27:12;;;;;;;17.50;16.48;;;;;;;;;;5070046;28;20129;-46
2021/10/27 01:29:39;;;;;;;16.90;16.08;;;;;;;;;;5071592;28;20040;-49
2021/10/27 01:32:07;;;;;;;16.80;15.88;;;;;;;;;;5067682;28;20090;-48
2021/10/27 01:34:35;;;;;;;19.60;18.80;;;;;;;;;;5071908;28;20067;-47
2021/10/27 01:37:02;;;;;;;19.45;18.40;;;;;;;;;;5069861;28;20075;-44
2021/10/27 01:39:29;;;;;;;17.52;16.77;;;;;;;;;;5069923;28;20492;-45
2021/10/27 01:41:55;;;;;;;19.08;18.05;;;;;;;;;;5069596;28;20056;-47
2021/10/27 01:44:22;;;;;;;19.23;18.38;;;;;;;;;;5069510;28;20373;-49
2021/10/27 01:46:49;;;;;;;17.98;17.02;;;;;;;;;;5069572;28;20086;-47
2021/10/27 01:49:15;;;;;;;18.40;17.75;;;;;;;;;;5070409;28;20381;-47
2021/10/27 01:51:42;;;;;;;19.25;18.40;;;;;;;;;;5052696;28;20056;-48
2021/10/27 01:54:09;;;;;;;17.15;16.17;;;;;;;;;;5069748;28;20041;-46
2021/10/27 01:56:36;;;;;;;18.85;18.15;;;;;;;;;;5070168;28;20072;-46
2021/10/27 01:59:03;;;;;;;17.92;17.27;;;;;;;;;;5071680;28;20113;-49
2021/10/27 02:01:30;;;;;;;18.20;17.50;;;;;;;;;;5063473;28;20041;-46
2021/10/27 02:03:57;;;;;;;18.80;18.10;;;;;;;;;;5057459;28;20564;-50
2021/10/27 02:06:24;;;;;;;20.17;19.10;;;;;;;;;;5069405;28;20045;-47
2021/10/27 02:08:52;;;;;;;18.05;17.23;;;;;;;;;;5069627;28;20383;-46
2021/10/27 02:11:20;;;;;;;17.65;16.90;;;;;;;;;;5070572;28;20475;-46
2021/10/27 02:13:52;;;;;;;19.95;18.83;;;;;;;;;;5065222;28;20029;-47
2021/10/27 02:16:19;;;;;;;17.63;17.10;;;;;;;;;;5070496;28;20051;-48
2021/10/27 02:18:46;;;;;;;19.50;18.45;;;;;;;;;;5067401;28;20064;-46
2021/10/27 02:21:13;;;;;;;18.92;17.77;;;;;;;;;;5069242;28;20047;-49
2021/10/27 02:23:39;;;;;;;16.13;15.07;;;;;;;;;;5068631;28;20040;-48
2021/10/27 02:26:06;;;;;;;14.90;14.23;;;;;;;;;;5059883;28;20107;-45
2021/10/27 02:28:33;;;;;;;13.30;12.90;;;;;;;;;;5070165;28;20397;-48
2021/10/27 02:31:00;;;;;;;13.98;13.48;;;;;;;;;;5069656;28;20110;-45
2021/10/27 02:33:27;;;;;;;15.02;14.40;;;;;;;;;;5069528;28;20036;-49
2021/10/27 02:35:54;;;;;;;13.40;12.85;;;;;;;;;;5065784;28;20063;-45
2021/10/27 02:38:41;;;;;;;17.90;17.27;;;;;;;;;;5068810;28;20032;-47
2021/10/27 02:41:11;;;;;;;18.98;18.08;;;;;;;;;;5069393;28;20068;-45
2021/10/27 02:43:38;;;;;;;21.48;20.38;;;;;;;;;;5066989;28;20041;-45
2021/10/27 02:46:05;;;;;;;18.85;17.85;;;;;;;;;;5061929;28;20040;-44
2021/10/27 02:48:32;;;;;;;17.48;16.67;;;;;;;;;;5069556;28;20052;-48
2021/10/27 02:50:58;;;;;;;18.13;17.48;;;;;;;;;;5068318;28;20400;-45
2021/10/27 02:53:25;;;;;;;16.52;15.93;;;;;;;;;;5068809;28;20033;-45
2021/10/27 02:55:52;;;;;;;17.40;16.58;;;;;;;;;;5066927;28;20508;-46
2021/10/27 02:58:19;;;;;;;18.15;17.48;;;;;;;;;;5069738;28;20045;-45
2021/10/27 03:00:45;;;;;;;16.67;16.05;;;;;;;;;;5069314;28;20086;-46
2021/10/27 03:03:13;;;;;;;14.85;14.45;;;;;;;;;;5068793;28;20045;-44
2021/10/27 03:05:39;;;;;;;15.35;14.88;;;;;;;;;;5069813;28;20033;-48
2021/10/27 03:08:06;;;;;;;14.98;14.63;;;;;;;;;;5066413;28;20036;-47
2021/10/27 03:10:33;;;;;;;16.33;15.80;;;;;;;;;;5052833;28;20128;-47
2021/10/27 03:12:59;;;;;;;17.30;16.60;;;;;;;;;;5066546;28;20060;-45
2021/10/27 03:15:26;;;;;;;18.95;18.10;;;;;;;;;;5069845;28;20045;-44
2021/10/27 03:17:53;;;;;;;16.88;16.20;;;;;;;;;;5069713;28;20040;-49
2021/10/27 03:20:20;;;;;;;18.67;18.05;;;;;;;;;;5067740;28;20056;-45
2021/10/27 03:22:47;;;;;;;19.42;18.65;;;;;;;;;;5060879;28;20040;-48
2021/10/27 03:25:13;;;;;;;20.80;19.73;;;;;;;;;;5067798;28;20468;-47
2021/10/27 03:27:40;;;;;;;19.10;18.35;;;;;;;;;;5058893;28;20056;-48
2021/10/27 03:30:07;;;;;;;16.98;16.30;;;;;;;;;;5067526;28;20040;-45
2021/10/27 03:32:34;;;;;;;19.05;18.15;;;;;;;;;;5068985;28;20094;-49
2021/10/27 03:35:00;;;;;;;21.05;19.85;;;;;;;;;;5069054;28;20036;-48
2021/10/27 03:37:27;;;;;;;19.88;18.85;;;;;;;;;;5069973;28;20128;-47
2021/10/27 03:39:54;;;;;;;18.33;17.63;;;;;;;;;;5065499;28;20136;-48
2021/10/27 03:42:21;;;;;;;19.30;18.27;;;;;;;;;;5066915;28;20041;-45
2021/10/27 03:44:47;;;;;;;18.40;17.80;;;;;;;;;;5068106;28;20061;-46
2021/10/27 03:47:14;;;;;;;17.63;17.02;;;;;;;;;;5069320;28;20094;-49
2021/10/27 03:49:41;;;;;;;18.27;17.65;;;;;;;;;;5064475;28;20037;-48
2021/10/27 03:52:08;;;;;;;19.08;18.38;;;;;;;;;;5061332;28;20477;-48
2021/10/27 03:54:35;;;;;;;20.45;19.58;;;;;;;;;;5068773;28;20048;-46
2021/10/27 03:57:02;;;;;;;19.20;18.33;;;;;;;;;;5071354;28;20110;-46
2021/10/27 03:59:29;;;;;;;20.95;19.95;;;;;;;;;;5073856;28;20053;-45
2021/10/27 04:01:56;;;;;;;19.20;18.40;;;;;;;;;;5071946;28;20464;-47
2021/10/27 04:04:23;;;;;;;19.48;18.73;;;;;;;;;;5072030;28;20036;-47
2021/10/27 04:06:50;;;;;;;18.20;17.23;;;;;;;;;;5073042;28;20044;-48
2021/10/27 04:09:17;;;;;;;19.35;18.23;;;;;;;;;;5072535;28;20049;-48
2021/10/27 04:11:44;;;;;;;20.50;19.25;;;;;;;;;;5073665;28;20057;-45
2021/10/27 04:14:11;;;;;;;19.92;19.00;;;;;;;;;;5071268;28;20040;-47
2021/10/27 04:16:37;;;;;;;20.30;18.92;;;;;;;;;;5071635;28;20048;-47
2021/10/27 04:19:04;;;;;;;17.15;16.55;;;;;;;;;;5070253;28;20152;-50
2021/10/27 04:21:31;;;;;;;18.60;17.13;;;;;;;;;;5054908;28;20041;-46
2021/10/27 04:23:58;;;;;;;20.52;19.77;;;;;;;;;;5071977;28;20059;-46
2021/10/27 04:26:25;;;;;;;19.30;18.48;;;;;;;;;;5071446;28;20064;-46
2021/10/27 04:28:52;;;;;;;19.77;18.67;;;;;;;;;;5073513;28;20037;-44
2021/10/27 04:31:20;;;;;;;21.30;20.30;;;;;;;;;;5071566;28;20055;-47
2021/10/27 04:33:47;;;;;;;18.35;17.73;;;;;;;;;;5070846;28;20073;-46
2021/10/27 04:36:15;;;;;;;18.25;17.45;;;;;;;;;;5070325;28;20053;-45
2021/10/27 04:38:42;;;;;;;19.02;18.05;;;;;;;;;;5070214;28;20210;-46
2021/10/27 04:41:10;;;;;;;19.20;18.35;;;;;;;;;;5070826;28;20132;-46
2021/10/27 04:43:37;;;;;;;18.90;18.20;;;;;;;;;;5069642;28;20044;-46
2021/10/27 04:46:04;;;;;;;17.73;17.23;;;;;;;;;;5071241;28;20033;-48
2021/10/27 04:48:31;;;;;;;18.48;17.67;;;;;;;;;;5070591;28;20039;-45
2021/10/27 04:50:58;;;;;;;14.63;14.05;;;;;;;;;;5070794;28;20036;-46
2021/10/27 04:53:25;;;;;;;18.35;17.30;;;;;;;;;;5070789;28;20044;-46
2021/10/27 04:55:52;;;;;;;20.70;19.50;;;;;;;;;;5069912;28;20068;-47
2021/10/27 04:58:20;;;;;;;19.38;18.48;;;;;;;;;;5071536;28;20036;-47
2021/10/27 05:00:47;;;;;;;18.52;17.77;;;;;;;;;;5070805;28;20044;-44
2021/10/27 05:03:14;;;;;;;18.63;17.92;;;;;;;;;;5067744;28;20094;-45
2021/10/27 05:05:53;;;;;;;18.02;17.38;;;;;;;;;;5069696;28;20120;-45
2021/10/27 05:08:22;;;;;;;18.38;17.65;;;;;;;;;;5068870;28;20541;-50
2021/10/27 05:10:50;;;;;;;18.05;17.50;;;;;;;;;;5072156;28;20065;-48
2021/10/27 05:13:18;;;;;;;19.60;19.08;;;;;;;;;;5071228;28;20192;-45
2021/10/27 05:15:46;;;;;;;16.40;15.90;;;;;;;;;;5070109;28;20430;-44
2021/10/27 05:18:14;;;;;;;19.80;19.05;;;;;;;;;;5069474;28;20119;-45
2021/10/27 05:20:40;;;;;;;27.90;26.05;;;;;;;;;;5068778;28;20076;-43
2021/10/27 05:23:07;;;;;;;20.65;19.55;;;;;;;;;;5072360;28;20068;-44
2021/10/27 05:25:34;;;;;;;19.60;19.10;;;;;;;;;;5064544;28;20455;-44
2021/10/27 05:28:01;;;;;;;19.55;18.83;;;;;;;;;;5059530;28;20032;-44
2021/10/27 05:30:28;;;;;;;17.27;16.35;;;;;;;;;;5065094;28;20033;-43
2021/10/27 05:32:58;;;;;;;16.08;15.50;;;;;;;;;;5068548;28;20143;-44
2021/10/27 05:35:26;;;;;;;15.18;14.80;;;;;;;;;;5070942;28;20048;-43
2021/10/27 05:37:54;;;;;;;17.23;16.30;;;;;;;;;;5068198;28;20036;-43
2021/10/27 05:40:21;;;;;;;17.80;17.25;;;;;;;;;;5064454;28;20076;-43
2021/10/27 05:42:48;;;;;;;17.85;16.95;;;;;;;;;;5068965;28;20697;-43
2021/10/27 05:45:15;;;;;;;16.73;16.33;;;;;;;;;;5070122;28;20367;-44
2021/10/27 05:47:48;;;;;;;16.80;16.45;;;;;;;;;;5070189;28;20041;-46
2021/10/27 05:55:47;;;;;;;18.35;17.58;;;;;;;;;;5071044;28;20048;-44
2021/10/27 05:58:14;;;;;;;17.75;17.08;;;;;;;;;;5067423;28;20067;-43
2021/10/27 06:00:41;;;;;;;20.10;19.40;;;;;;;;;;5069066;28;20048;-47
2021/10/27 06:03:08;;;;;;;16.23;15.93;;;;;;;;;;5069360;28;20041;-44
2021/10/27 06:05:36;;;;;;;17.40;16.85;;;;;;;;;;5069857;28;20109;-43
2021/10/27 06:08:04;;;;;;;17.40;16.80;;;;;;;;;;5051158;28;20044;-42
2021/10/27 06:10:31;;;;;;;19.63;18.52;;;;;;;;;;5070471;28;20066;-44
2021/10/27 06:13:06;;;;;;;16.08;15.75;;;;;;;;;;5060940;28;20428;-44
2021/10/27 06:15:33;;;;;;;22.15;20.83;;;;;;;;;;5069135;28;20484;-43
2021/10/27 06:18:01;;;;;;;20.70;19.80;;;;;;;;;;5069101;28;20040;-45
2021/10/27 06:20:28;;;;;;;17.77;17.05;;;;;;;;;;5069521;28;20068;-44
2021/10/27 06:22:56;;;;;;;19.48;18.98;;;;;;;;;;5058852;28;20048;-43
2021/10/27 06:25:24;;;;;;;17.70;17.38;;;;;;;;;;5069249;28;20425;-43
2021/10/27 06:27:59;;;;;;;17.58;16.85;;;;;;;;;;5069056;28;20037;-44
2021/10/27 06:35:55;;;;;;;16.23;15.73;;;;;;;;;;5068798;28;20147;-42
2021/10/27 06:39:24;;;;;;;18.70;17.80;;;;;;;;;;5069628;28;20048;-47
2021/10/27 06:46:40;;;;;;;13.88;13.27;;;;;;;;;;5066935;28;20041;-44
2021/10/27 06:49:07;;;;;;;11.77;11.25;;;;;;;;;;5064522;28;20036;-43
2021/10/27 06:51:34;;;;;;;6.53;5.97;;;;;;;;;;5069339;28;20036;-45
2021/10/27 06:54:01;;;;;;;2.88;2.78;;;;;;;;;;5067949;28;20038;-44
2021/10/27 06:56:28;;;;;;;2.20;2.10;;;;;;;;;;5066986;28;20094;-44
2021/10/27 06:59:12;;;;;;;2.53;2.42;;;;;;;;;;5070100;28;20090;-44
2021/10/27 07:14:56;;;;;;;2.88;2.03;;;;;;;;;;5069705;28;20033;-43
2021/10/27 07:15:30;;;;;;;5.03;3.85;;;;;;;;;;5069695;28;20052;-46
2021/10/27 07:17:57;;;;;;;5.18;4.88;;;;;;;;;;5067676;28;20131;-44
2021/10/27 07:20:24;;;;;;;3.85;3.75;;;;;;;;;;5064501;28;20044;-44
2021/10/27 07:22:53;;;;;;;3.90;3.80;;;;;;;;;;5066694;28;20076;-43
2021/10/27 07:25:20;;;;;;;3.67;3.47;;;;;;;;;;5069729;28;20044;-45
2021/10/27 07:27:49;;;;;;;11.90;9.55;;;;;;;;;;5068272;28;20053;-43
2021/10/27 07:30:17;;;;;;;4.55;4.20;;;;;;;;;;5066713;28;20036;-43
2021/10/27 07:32:44;;;;;;;5.15;4.70;;;;;;;;;;5073132;28;20484;-43
2021/10/27 07:40:33;;;;;;;8.07;7.03;;;;;;;;;;5069553;28;20103;-43
2021/10/27 07:43:04;;;;;;;5.32;4.85;;;;;;;;;;5065096;28;20357;-45
2021/10/27 07:45:32;;;;;;;7.32;4.55;;;;;;;;;;5072002;28;20098;-43
2021/10/27 07:47:59;;;;;;;4.95;4.65;;;;;;;;;;5072636;28;20067;-44
2021/10/27 07:50:27;;;;;;;4.35;4.07;;;;;;;;;;5071854;28;20032;-44
2021/10/27 07:52:54;;;;;;;4.07;3.97;;;;;;;;;;5073422;28;20047;-44
2021/10/27 07:55:21;;;;;;;4.13;3.95;;;;;;;;;;5071167;28;20037;-45
2021/10/27 07:57:49;;;;;;;2.17;2.13;;;;;;;;;;5063991;28;20052;-43
2021/10/27 08:00:18;;;;;;;3.00;2.30;;;;;;;;;;5067396;28;20048;-44
2021/10/27 08:02:48;;;;;;;1.73;1.70;;;;;;;;;;5072369;28;20041;-44
2021/10/27 08:05:15;;;;;;;1.92;1.73;;;;;;;;;;5072525;28;20090;-43
2021/10/27 08:07:44;;;;;;;4.65;3.08;;;;;;;;;;5072410;28;20090;-43
2021/10/27 08:10:12;;;;;;;3.15;2.95;;;;;;;;;;5065876;28;20032;-44
2021/10/27 08:12:39;;;;;;;2.88;2.75;;;;;;;;;;5069154;28;20503;-44
2021/10/27 08:15:07;;;;;;;1.60;1.60;;;;;;;;;;5070818;28;20075;-43
2021/10/27 08:17:34;;;;;;;2.35;1.60;;;;;;;;;;5073228;28;20047;-47
2021/10/27 08:20:01;;;;;;;2.55;2.40;;;;;;;;;;5062416;28;20052;-45
2021/10/27 08:22:28;;;;;;;1.70;1.60;;;;;;;;;;5068501;28;20094;-45
2021/10/27 08:24:55;;;;;;;2.30;2.22;;;;;;;;;;5064756;28;20037;-43
2021/10/27 08:27:30;;;;;;;2.20;2.07;;;;;;;;;;5069471;28;20047;-45
2021/10/27 08:30:02;;;;;;;5.22;4.80;;;;;;;;;;5071849;28;20060;-43
2021/10/27 08:32:40;;;;;;;3.08;2.88;;;;;;;;;;5071520;28;20037;-43
2021/10/27 08:35:13;;;;;;;2.90;1.55;;;;;;;;;;5072972;28;20029;-42
2021/10/27 08:37:43;;;;;;;4.57;1.70;;;;;;;;;;5070205;28;20044;-45
2021/10/27 08:40:10;;;;;;;3.72;1.80;;;;;;;;;;5070629;28;20048;-45
2021/10/27 08:42:38;;;;;;;17.80;2.80;;;;;;;;;;5071595;28;20040;-44
2021/10/27 08:45:06;;;;;;;1.73;1.73;;;;;;;;;;5069193;28;20399;-45
2021/10/27 08:47:34;;;;;;;1.90;1.80;;;;;;;;;;5073523;28;20036;-43
2021/10/27 08:50:01;;;;;;;1.95;1.85;;;;;;;;;;5071753;28;20074;-43
2021/10/27 08:52:27;;;;;;;2.15;1.33;;;;;;;;;;5072189;28;20054;-44
2021/10/27 08:54:56;;;;;;;1.58;1.48;;;;;;;;;;5072062;28;20040;-44
2021/10/27 08:57:24;;;;;;;1.73;1.50;;;;;;;;;;5070531;28;20033;-46
2021/10/27 09:00:44;;;;;;;1.40;1.30;;;;;;;;;;5072107;28;20028;-45
2021/10/27 09:08:08;;;;;;;3.53;1.85;;;;;;;;;;5072266;28;20431;-44
2021/10/27 09:16:28;;;;;;;2.20;2.00;;;;;;;;;;5063423;28;20045;-45
2021/10/27 09:44:15;;;;;;;1.95;1.85;;;;;;;;;;5068066;28;20504;-46
2021/10/27 09:47:04;;;;;;;1.65;1.30;;;;;;;;;;5064447;28;20421;-43
2021/10/27 10:06:28;;;;;;;2.22;2.08;;;;;;;;;;5067083;28;20745;-49
2021/10/27 10:08:56;;;;;;;1.50;1.40;;;;;;;;;;5068549;28;20028;-44
2021/10/27 10:11:27;;;;;;;1.88;1.77;;;;;;;;;;5070483;28;20098;-45
2021/10/27 10:14:01;;;;;;;1.77;1.67;;;;;;;;;;5068376;28;20036;-44
2021/10/27 10:16:29;;;;;;;2.65;1.52;;;;;;;;;;5067402;28;20075;-44
2021/10/27 10:18:58;;;;;;;1.98;1.88;;;;;;;;;;5063563;28;20039;-44
2021/10/27 10:21:29;;;;;;;3.05;1.73;;;;;;;;;;5067711;28;20044;-45
2021/10/27 10:24:15;;;;;;;2.35;1.55;;;;;;;;;;5063941;28;20024;-45
2021/10/27 10:26:42;;;;;;;1.45;1.35;;;;;;;;;;5069046;28;20192;-47
2021/10/27 10:29:09;;;;;;;1.48;1.38;;;;;;;;;;5052073;28;20098;-44
2021/10/27 10:31:37;;;;;;;1.50;1.50;;;;;;;;;;5069117;28;20033;-47
2021/10/27 10:34:10;;;;;;;1.48;1.38;;;;;;;;;;5066592;28;20123;-45
2021/10/27 10:36:44;;;;;;;1.33;1.23;;;;;;;;;;5059015;28;20052;-48
2021/10/27 10:39:36;;;;;;;3.10;1.15;;;;;;;;;;5066995;28;20056;-47
2021/10/27 10:42:45;;;;;;;1.27;1.27;;;;;;;;;;5066109;28;20079;-47
2021/10/27 10:45:30;;;;;;;1.20;1.20;;;;;;;;;;5065257;28;20634;-45
2021/10/27 11:40:46;;;;;;;1.35;1.10;;;;;;;;;;5072091;28;20067;-45
2021/10/27 11:46:11;;;;;;;1.92;1.25;;;;;;;;;;5069093;28;20036;-43
2021/10/27 11:51:12;;;;;;;1.10;1.10;;;;;;;;;;5071204;28;20029;-43
2021/10/27 11:53:39;;;;;;;1.35;1.27;;;;;;;;;;5068474;28;20048;-42
2021/10/27 11:56:26;;;;;;;2.00;1.50;;;;;;;;;;5070834;28;20072;-43
2021/10/27 11:58:56;;;;;;;5.38;1.30;;;;;;;;;;5069932;28;20436;-42
2021/10/27 12:01:39;;;;;;;1.73;1.30;;;;;;;;;;5089204;28;20083;-42
2021/10/27 12:04:11;;;;;;;1.30;1.30;;;;;;;;;;5069404;28;20116;-41
2021/10/27 12:12:09;;;;;;;1.10;1.10;;;;;;;;;;5068866;28;20052;-42
2021/10/27 12:14:57;;;;;;;1.10;1.10;;;;;;;;;;5069321;28;20090;-42
2021/10/27 12:17:31;;;;;;;1.05;1.05;;;;;;;;;;5070235;28;20052;-41
2021/10/27 12:19:58;;;;;;;3.65;1.50;;;;;;;;;;5070407;28;20040;-41
2021/10/27 12:22:25;;;;;;;1.50;1.25;;;;;;;;;;5072867;28;20048;-43
2021/10/27 12:24:56;;;;;;;1.33;1.23;;;;;;;;;;5070345;28;20089;-41
2021/10/27 12:27:32;;;;;;;1.35;1.25;;;;;;;;;;5071817;28;20093;-42
2021/10/27 12:30:00;;;;;;;1.83;1.73;;;;;;;;;;5061554;28;20079;-42
2021/10/27 12:32:27;;;;;;;1.60;1.25;;;;;;;;;;5071459;28;20037;-41
2021/10/27 12:35:06;;;;;;;1.77;1.55;;;;;;;;;;5070867;28;20473;-40
2021/10/27 12:37:40;;;;;;;1.50;1.40;;;;;;;;;;5070282;28;20048;-42
2021/10/27 12:40:09;;;;;;;1.88;1.48;;;;;;;;;;5069436;28;21736;-42
2021/10/27 12:42:36;;;;;;;2.95;1.27;;;;;;;;;;5067961;28;20622;-44
2021/10/27 12:45:04;;;;;;;1.55;1.45;;;;;;;;;;5067212;28;20032;-46
2021/10/27 12:47:33;;;;;;;1.30;1.20;;;;;;;;;;5053389;28;20106;-46
2021/10/27 12:50:05;;;;;;;1.70;1.60;;;;;;;;;;5070313;28;20049;-45
2021/10/27 12:52:38;;;;;;;1.75;1.63;;;;;;;;;;5060454;28;20064;-46
2021/10/27 12:55:20;;;;;;;2.35;1.45;;;;;;;;;;5071136;28;20098;-45
2021/10/27 12:57:52;;;;;;;3.20;1.50;;;;;;;;;;5067509;28;20043;-44
2021/10/27 13:00:37;;;;;;;1.20;1.15;;;;;;;;;;5071873;28;20122;-46
2021/10/27 13:03:39;;;;;;;1.65;1.55;;;;;;;;;;5069687;28;20396;-46
2021/10/27 13:29:29;;;;;;;1.40;1.30;;;;;;;;;;5069463;28;20067;-46
2021/10/27 13:32:00;;;;;;;1.33;1.10;;;;;;;;;;5072301;28;20524;-49
2021/10/27 13:34:27;;;;;;;2.05;1.30;;;;;;;;;;5069892;28;20049;-47
2021/10/27 13:36:55;;;;;;;2.65;2.45;;;;;;;;;;5071198;28;20067;-44
2021/10/27 13:39:23;;;;;;;1.40;1.30;;;;;;;;;;5070227;28;20063;-46
2021/10/27 13:41:55;;;;;;;2.15;1.40;;;;;;;;;;5068107;28;20048;-46
2021/10/27 13:44:28;;;;;;;1.17;1.13;;;;;;;;;;5070180;28;20369;-45
2021/10/27 14:08:28;;;;;;;1.77;1.10;;;;;;;;;;5068942;28;20040;-45
2021/10/27 14:17:08;;;;;;;2.50;1.40;;;;;;;;;;5070597;28;20492;-47
2021/10/27 15:25:20;;;;;;;1.70;1.60;;;;;;;;;;5066986;28;20033;-44
2021/10/27 15:51:51;;;;;;;3.28;3.13;;;;;;;;;;5063170;28;20036;-44
2021/10/27 15:54:19;;;;;;;4.55;4.15;;;;;;;;;;5068073;28;20488;-47
2021/10/27 15:56:46;;;;;;;3.85;3.65;;;;;;;;;;5068004;28;20045;-46
2021/10/27 15:59:13;;;;;;;3.70;3.50;;;;;;;;;;5065240;28;20071;-44
2021/10/27 16:01:40;;;;;;;6.30;5.63;;;;;;;;;;5069628;28;20106;-47
2021/10/27 16:04:07;;;;;;;5.90;5.53;;;;;;;;;;5065987;28;20589;-45
2021/10/27 16:06:42;;;;;;;4.63;4.43;;;;;;;;;;5067658;28;20078;-44
2021/10/27 16:09:10;;;;;;;8.63;6.03;;;;;;;;;;5069921;28;20040;-44
2021/10/27 16:11:37;;;;;;;8.32;7.63;;;;;;;;;;5062266;28;20041;-45
2021/10/27 16:14:05;;;;;;;3.70;3.35;;;;;;;;;;5066150;28;20048;-45
2021/10/27 16:16:32;;;;;;;4.25;4.05;;;;;;;;;;5064192;28;20051;-46
2021/10/27 16:19:19;;;;;;;4.28;3.90;;;;;;;;;;5059860;28;20045;-49
2021/10/27 16:22:04;;;;;;;3.30;3.05;;;;;;;;;;5062965;28;20539;-44
2021/10/27 16:24:31;;;;;;;3.50;3.30;;;;;;;;;;5067869;28;20051;-44
2021/10/27 16:26:58;;;;;;;4.18;3.72;;;;;;;;;;5063261;28;20040;-47
2021/10/27 16:29:25;;;;;;;3.67;3.58;;;;;;;;;;5057575;28;20036;-46
2021/10/27 16:31:52;;;;;;;3.55;3.00;;;;;;;;;;5069774;28;20114;-44
2021/10/27 16:34:18;;;;;;;4.47;4.18;;;;;;;;;;5070725;28;20024;-48
2021/10/27 16:36:46;;;;;;;5.22;4.93;;;;;;;;;;5072675;28;20040;-44
2021/10/27 16:39:14;;;;;;;4.22;3.60;;;;;;;;;;5071875;28;20071;-45
2021/10/27 16:41:41;;;;;;;4.95;4.65;;;;;;;;;;5071113;28;20057;-45
2021/10/27 16:44:08;;;;;;;4.10;3.92;;;;;;;;;;5069395;28;20400;-45
2021/10/27 16:46:35;;;;;;;3.83;3.72;;;;;;;;;;5071144;28;20045;-44
2021/10/27 16:49:02;;;;;;;6.95;5.60;;;;;;;;;;5072947;28;20127;-44
2021/10/27 16:51:29;;;;;;;3.97;3.85;;;;;;;;;;5071890;28;20032;-45
2021/10/27 16:54:00;;;;;;;4.70;4.40;;;;;;;;;;5070874;28;20121;-46
2021/10/27 16:56:28;;;;;;;4.60;4.40;;;;;;;;;;5067374;28;20043;-43
2021/10/27 16:58:54;;;;;;;4.65;4.25;;;;;;;;;;5074792;28;20444;-45
2021/10/27 17:01:22;;;;;;;5.40;3.65;;;;;;;;;;5071967;28;20056;-42
2021/10/27 17:03:50;;;;;;;5.18;4.97;;;;;;;;;;5070803;28;20477;-44
2021/10/27 17:06:17;;;;;;;4.30;4.20;;;;;;;;;;5065213;28;20060;-43
2021/10/27 17:08:44;;;;;;;8.98;5.70;;;;;;;;;;5070131;28;20094;-43
2021/10/27 17:11:23;;;;;;;3.53;3.42;;;;;;;;;;5089549;28;20423;-43
2021/10/27 17:13:50;;;;;;;3.20;3.10;;;;;;;;;;5066043;28;20059;-43
2021/10/27 17:16:19;;;;;;;3.65;3.35;;;;;;;;;;5069910;28;20106;-42
2021/10/27 17:18:46;;;;;;;4.03;3.75;;;;;;;;;;5070286;28;20086;-44
2021/10/27 17:21:14;;;;;;;4.40;4.30;;;;;;;;;;5072198;28;20060;-43
2021/10/27 17:23:41;;;;;;;6.25;5.78;;;;;;;;;;5071022;28;20044;-43
2021/10/27 17:26:08;;;;;;;6.80;6.50;;;;;;;;;;5068459;28;20037;-43
2021/10/27 17:28:35;;;;;;;8.00;7.28;;;;;;;;;;5059513;28;20048;-43
2021/10/27 17:31:02;;;;;;;6.75;5.75;;;;;;;;;;5068102;28;20036;-45
2021/10/27 17:33:29;;;;;;;5.00;4.60;;;;;;;;;;5060985;28;20043;-43
2021/10/27 17:36:01;;;;;;;4.88;4.60;;;;;;;;;;5070376;28;20119;-42
2021/10/27 17:38:31;;;;;;;7.43;7.00;;;;;;;;;;5067503;28;20040;-46
2021/10/27 17:40:58;;;;;;;10.43;9.00;;;;;;;;;;5069897;28;20056;-43
2021/10/27 17:43:25;;;;;;;7.30;6.75;;;;;;;;;;5067840;28;20437;-42
2021/10/27 17:45:52;;;;;;;6.03;5.63;;;;;;;;;;5061387;28;20057;-43
2021/10/27 17:48:24;;;;;;;7.82;7.53;;;;;;;;;;5056775;28;20131;-43
2021/10/27 17:58:45;;;;;;;8.75;8.10;;;;;;;;;;5058958;28;20086;-42
2021/10/27 18:01:13;;;;;;;8.25;7.90;;;;;;;;;;5064636;28;20041;-44
2021/10/27 18:03:43;;;;;;;7.65;7.45;;;;;;;;;;5067870;28;20055;-44
2021/10/27 18:06:13;;;;;;;5.35;5.15;;;;;;;;;;5070451;28;20040;-44
2021/10/27 18:08:42;;;;;;;12.57;11.60;;;;;;;;;;5067679;28;20044;-44
2021/10/27 18:11:12;;;;;;;11.90;11.40;;;;;;;;;;5063840;28;20060;-43
2021/10/27 18:13:52;;;;;;;11.65;10.85;;;;;;;;;;5060319;28;20119;-44
2021/10/27 18:21:40;;;;;;;13.02;10.43;;;;;;;;;;5069110;28;20110;-45
2021/10/27 18:43:12;;;;;;;12.63;11.83;;;;;;;;;;5065171;28;20097;-44
2021/10/27 18:45:40;;;;;;;14.10;12.90;;;;;;;;;;5069117;28;20282;-44
2021/10/27 18:48:09;;;;;;;14.75;13.43;;;;;;;;;;5051960;28;20090;-44
2021/10/27 18:50:56;;;;;;;19.38;16.90;;;;;;;;;;5070649;28;20052;-44
2021/10/27 18:56:40;;;;;;;20.95;18.77;;;;;;;;;;5067415;28;20048;-42
2021/10/27 18:59:16;;;;;;;22.33;20.55;;;;;;;;;;5070608;28;20469;-44
2021/10/27 19:12:29;;;;;;;19.45;18.05;;;;;;;;;;5070782;28;20419;-45
2021/10/27 19:17:25;;;;;;;18.98;17.58;;;;;;;;;;5069186;28;20409;-47
2021/10/27 19:19:52;;;;;;;26.10;23.70;;;;;;;;;;5059787;28;20045;-44
2021/10/27 19:22:20;;;;;;;22.60;20.13;;;;;;;;;;5063588;28;20090;-45
2021/10/27 19:27:42;;;;;;;25.33;22.73;;;;;;;;;;5070460;28;20447;-44
2021/10/27 20:13:47;;;;;;;20.38;19.10;;;;;;;;;;5070573;28;20052;-42
2021/10/27 20:51:36;;;;;;;26.48;24.38;;;;;;;;;;5070105;28;20029;-44
2021/10/27 20:54:04;;;;;;;35.63;32.65;;;;;;;;;;5067694;28;20113;-41
2021/10/27 20:56:33;;;;;;;34.10;31.20;;;;;;;;;;5070823;28;20113;-45
2021/10/27 21:14:41;;;;;;;25.98;24.52;;;;;;;;;;5071110;28;20051;-43
2021/10/27 21:17:08;;;;;;;25.85;24.67;;;;;;;;;;5071716;28;20044;-42
2021/10/27 21:19:39;;;;;;;25.48;24.00;;;;;;;;;;5066386;28;20571;-43
2021/10/27 21:22:08;;;;;;;28.48;26.80;;;;;;;;;;5070810;28;20068;-43
2021/10/27 21:24:38;;;;;;;28.17;26.05;;;;;;;;;;5067026;28;20040;-43
2021/10/27 21:27:08;;;;;;;29.27;27.25;;;;;;;;;;5070857;28;20048;-42
2021/10/27 21:29:45;;;;;;;27.77;25.95;;;;;;;;;;5069381;28;20040;-43
2021/10/27 21:42:55;;;;;;;29.80;27.45;;;;;;;;;;5069806;28;20087;-44
2021/10/27 21:45:23;;;;;;;28.95;27.05;;;;;;;;;;5067952;28;20548;-42
2021/10/27 21:47:50;;;;;;;27.92;26.23;;;;;;;;;;5058701;28;20071;-39
2021/10/27 21:50:21;;;;;;;32.80;30.33;;;;;;;;;;5072050;28;20440;-41
2021/10/27 21:52:50;;;;;;;30.85;28.80;;;;;;;;;;5070487;28;20091;-39
2021/10/27 21:55:24;;;;;;;24.77;23.35;;;;;;;;;;5068767;28;20048;-39
2021/10/27 21:57:52;;;;;;;26.90;25.40;;;;;;;;;;5070077;28;20044;-40
2021/10/27 22:00:38;;;;;;;25.52;24.05;;;;;;;;;;5062062;28;20060;-39
2021/10/27 22:03:05;;;;;;;24.88;23.77;;;;;;;;;;5063510;28;20041;-39
2021/10/27 22:05:31;;;;;;;24.63;23.42;;;;;;;;;;5059270;28;20044;-39
2021/10/27 22:07:58;;;;;;;25.55;23.98;;;;;;;;;;5065553;28;20033;-40